Jump to: Map   Top of Page   Track Data   Planned Ports of Call   Notes   Bottom of Page
  Great Circle Distances:
  Last reported position of Hōkūleʻa
  2022-05-19T01:18:24UTC latitude: -16.83087 longitude: -151.35993 course: 0 degrees speed: 0.0 knots
  To last port:   179.4 km,    96.9 nm / TrueBearing: 114 degrees / RelativeBearing: *undefined* > Cook's Bay, Moʻorea
  To next port:     0.9 km,     0.5 nm / TrueBearing: 109 degrees / RelativeBearing: *undefined* > Taputapuātea, Raʻiātea, French Polynesia
  Rough estimate of elapsed time to next port for Hōkūleʻa is not available when speed is zero.


  Last reported position of Hikianalia
  2022-05-19T01:18:44UTC latitude: -16.83229 longitude: -151.35909 course: 129 degrees speed: 0.0 knots
  To last port:   179.2 km,    96.8 nm / TrueBearing: 114 degrees / RelativeBearing: *undefined* > Cook's Bay, Moʻorea
  To next port:     0.8 km,     0.4 nm / TrueBearing: 100 degrees / RelativeBearing: *undefined* > Taputapuātea, Raʻiātea, French Polynesia
  Rough estimate of elapsed time to next port for Hikianalia is not available when speed is zero.


  Track data: (most recent on top)
  Each circular icon on the map marks a measurement point in this list.
      Date-Time(UTC)       Hawaiʻi-Standard-Time    Approximate-Local-Time    Latitude  Longitude  Course Speed Vessel
  YYYY-MM-DDThh:mm:ss    YYYY-MM-DDThh:mm:ss-10:00 YYYY-MM-DDThh:mm:ss∓HH:MM   degrees    degrees degrees knots
  2022-05-19T01:18:44UTC 2022-05-18T15:18:44-10:00 2022-05-18T15:18:44-10:00 -16.83229 -151.35909     129   0.0 Hikianalia
  2022-05-19T01:18:24UTC 2022-05-18T15:18:24-10:00 2022-05-18T15:18:24-10:00 -16.83087 -151.35993       0   0.0 Hōkūleʻa
  2022-05-19T00:18:49UTC 2022-05-18T14:18:49-10:00 2022-05-18T14:18:49-10:00 -16.83087 -151.35993     297   0.0 Hōkūleʻa
  2022-05-19T00:10:43UTC 2022-05-18T14:10:43-10:00 2022-05-18T14:10:43-10:00 -16.83217 -151.35924      24   0.0 Hikianalia
  2022-05-18T23:17:35UTC 2022-05-18T13:17:35-10:00 2022-05-18T13:17:35-10:00 -16.83095 -151.35978     152   0.0 Hōkūleʻa
  2022-05-18T23:09:14UTC 2022-05-18T13:09:14-10:00 2022-05-18T13:09:14-10:00 -16.83231 -151.35931     180   0.0 Hikianalia
  2022-05-18T22:18:34UTC 2022-05-18T12:18:34-10:00 2022-05-18T12:18:34-10:00 -16.83083 -151.35984      90   0.0 Hōkūleʻa
  2022-05-18T22:10:21UTC 2022-05-18T12:10:21-10:00 2022-05-18T12:10:21-10:00 -16.83184 -151.35931     151   0.1 Hikianalia
  2022-05-18T21:18:40UTC 2022-05-18T11:18:40-10:00 2022-05-18T11:18:40-10:00 -16.83083 -151.36017     173   2.6 Hōkūleʻa
  2022-05-18T21:09:38UTC 2022-05-18T11:09:38-10:00 2022-05-18T11:09:38-10:00 -16.82969 -151.36053     167   2.8 Hikianalia
  2022-05-18T20:17:52UTC 2022-05-18T10:17:52-10:00 2022-05-18T10:17:52-10:00 -16.78649 -151.36542      39   1.8 Hōkūleʻa
  2022-05-18T20:09:19UTC 2022-05-18T10:09:19-10:00 2022-05-18T10:09:19-10:00 -16.78439 -151.37167     360   2.4 Hikianalia
  2022-05-18T19:18:33UTC 2022-05-18T09:18:33-10:00 2022-05-18T09:18:33-10:00 -16.80898 -151.38435     314   2.8 Hōkūleʻa
  2022-05-18T19:10:12UTC 2022-05-18T09:10:12-10:00 2022-05-18T09:10:12-10:00 -16.82341 -151.37132     305   0.9 Hikianalia
  2022-05-18T18:36:34UTC 2022-05-18T08:36:34-10:00 2022-05-18T08:36:34-10:00 -16.83160 -151.36010       0   0.0 Hōkūleʻa
  2022-05-18T18:10:49UTC 2022-05-18T08:10:49-10:00 2022-05-18T08:10:49-10:00 -16.83182 -151.35881       0   0.0 Hikianalia
  2022-05-18T17:18:29UTC 2022-05-18T07:18:29-10:00 2022-05-18T07:18:29-10:00 -16.83160 -151.36010       0   0.0 Hōkūleʻa
  2022-05-18T17:10:17UTC 2022-05-18T07:10:17-10:00 2022-05-18T07:10:17-10:00 -16.83182 -151.35881       0   0.0 Hikianalia
  2022-05-18T16:18:44UTC 2022-05-18T06:18:44-10:00 2022-05-18T06:18:44-10:00 -16.83160 -151.36010       0   0.0 Hōkūleʻa
  2022-05-18T16:10:06UTC 2022-05-18T06:10:06-10:00 2022-05-18T06:10:06-10:00 -16.83182 -151.35881       0   0.0 Hikianalia
  2022-05-18T15:18:29UTC 2022-05-18T05:18:29-10:00 2022-05-18T05:18:29-10:00 -16.83160 -151.36010       0   0.0 Hōkūleʻa
  2022-05-18T15:10:18UTC 2022-05-18T05:10:18-10:00 2022-05-18T05:10:18-10:00 -16.83182 -151.35881       0   0.0 Hikianalia
  2022-05-18T14:18:30UTC 2022-05-18T04:18:30-10:00 2022-05-18T04:18:30-10:00 -16.83160 -151.36010       0   0.0 Hōkūleʻa
  2022-05-18T14:10:44UTC 2022-05-18T04:10:44-10:00 2022-05-18T04:10:44-10:00 -16.83182 -151.35881       0   0.0 Hikianalia
  2022-05-18T13:18:32UTC 2022-05-18T03:18:32-10:00 2022-05-18T03:18:32-10:00 -16.83160 -151.36010       0   0.0 Hōkūleʻa
  2022-05-18T13:10:15UTC 2022-05-18T03:10:15-10:00 2022-05-18T03:10:15-10:00 -16.83182 -151.35881       0   0.0 Hikianalia
  2022-05-18T12:18:48UTC 2022-05-18T02:18:48-10:00 2022-05-18T02:18:48-10:00 -16.83160 -151.36010       0   0.0 Hōkūleʻa
  2022-05-18T12:10:19UTC 2022-05-18T02:10:19-10:00 2022-05-18T02:10:19-10:00 -16.83182 -151.35881     340   0.0 Hikianalia
  2022-05-18T11:19:29UTC 2022-05-18T01:19:29-10:00 2022-05-18T01:19:29-10:00 -16.83160 -151.36010       0   0.0 Hōkūleʻa
  2022-05-18T11:11:14UTC 2022-05-18T01:11:14-10:00 2022-05-18T01:11:14-10:00 -16.83249 -151.35856     140   0.1 Hikianalia
  2022-05-18T10:18:34UTC 2022-05-18T00:18:34-10:00 2022-05-18T00:18:34-10:00 -16.83160 -151.36010       0   0.0 Hōkūleʻa
  2022-05-18T10:10:49UTC 2022-05-18T00:10:49-10:00 2022-05-18T00:10:49-10:00 -16.83117 -151.35971     243   0.2 Hikianalia
  2022-05-18T09:18:33UTC 2022-05-17T23:18:33-10:00 2022-05-17T23:18:33-10:00 -16.83160 -151.36010       0   0.0 Hōkūleʻa
  2022-05-18T09:10:17UTC 2022-05-17T23:10:17-10:00 2022-05-17T23:10:17-10:00 -16.83000 -151.35729       0   0.0 Hikianalia
  2022-05-18T08:19:10UTC 2022-05-17T22:19:10-10:00 2022-05-17T22:19:10-10:00 -16.83160 -151.36010       0   0.0 Hōkūleʻa
  2022-05-18T08:09:17UTC 2022-05-17T22:09:17-10:00 2022-05-17T22:09:17-10:00 -16.83000 -151.35729       0   0.0 Hikianalia
  2022-05-18T07:17:25UTC 2022-05-17T21:17:25-10:00 2022-05-17T21:17:25-10:00 -16.83160 -151.36010       0   0.0 Hōkūleʻa
  2022-05-18T07:10:41UTC 2022-05-17T21:10:41-10:00 2022-05-17T21:10:41-10:00 -16.83000 -151.35729       0   0.0 Hikianalia
  2022-05-18T06:18:37UTC 2022-05-17T20:18:37-10:00 2022-05-17T20:18:37-10:00 -16.83000 -151.35729       0   0.0 Hikianalia
  2022-05-18T06:18:23UTC 2022-05-17T20:18:23-10:00 2022-05-17T20:18:23-10:00 -16.83160 -151.36010       0   0.0 Hōkūleʻa
  2022-05-18T05:25:48UTC 2022-05-17T19:25:48-10:00 2022-05-17T19:25:48-10:00 -16.83160 -151.36010       0   0.0 Hōkūleʻa
  2022-05-18T05:10:16UTC 2022-05-17T19:10:16-10:00 2022-05-17T19:10:16-10:00 -16.83000 -151.35729       0   0.0 Hikianalia
  2022-05-18T04:18:40UTC 2022-05-17T18:18:40-10:00 2022-05-17T18:18:40-10:00 -16.83160 -151.36010       0   0.0 Hōkūleʻa
  2022-05-18T04:10:17UTC 2022-05-17T18:10:17-10:00 2022-05-17T18:10:17-10:00 -16.83000 -151.35729       0   0.0 Hikianalia
  2022-05-18T03:18:33UTC 2022-05-17T17:18:33-10:00 2022-05-17T17:18:33-10:00 -16.83160 -151.36010       0   0.0 Hōkūleʻa
  2022-05-18T02:18:31UTC 2022-05-17T16:18:31-10:00 2022-05-17T16:18:31-10:00 -16.83160 -151.36010       0   0.0 Hōkūleʻa
  2022-05-18T02:10:18UTC 2022-05-17T16:10:18-10:00 2022-05-17T16:10:18-10:00 -16.83000 -151.35729       0   0.0 Hikianalia
  2022-05-18T01:18:34UTC 2022-05-17T15:18:34-10:00 2022-05-17T15:18:34-10:00 -16.83160 -151.36010       0   0.0 Hōkūleʻa
  2022-05-18T01:09:13UTC 2022-05-17T15:09:13-10:00 2022-05-17T15:09:13-10:00 -16.83000 -151.35729       0   0.0 Hikianalia
  2022-05-18T00:17:48UTC 2022-05-17T14:17:48-10:00 2022-05-17T14:17:48-10:00 -16.83160 -151.36010     191   0.0 Hōkūleʻa
  2022-05-18T00:09:38UTC 2022-05-17T14:09:38-10:00 2022-05-17T14:09:38-10:00 -16.83000 -151.35729       0   0.0 Hikianalia
  2022-05-17T23:18:26UTC 2022-05-17T13:18:26-10:00 2022-05-17T13:18:26-10:00 -16.83105 -151.35999      12   0.1 Hōkūleʻa
  2022-05-17T23:10:08UTC 2022-05-17T13:10:08-10:00 2022-05-17T13:10:08-10:00 -16.83000 -151.35729       0   0.0 Hikianalia
  2022-05-17T22:32:57UTC 2022-05-17T12:32:57-10:00 2022-05-17T12:32:57-10:00 -16.83272 -151.36036     247   0.2 Hōkūleʻa
  2022-05-17T22:09:29UTC 2022-05-17T12:09:29-10:00 2022-05-17T12:09:29-10:00 -16.83000 -151.35729      90   0.0 Hikianalia
  2022-05-17T21:18:24UTC 2022-05-17T11:18:24-10:00 2022-05-17T11:18:24-10:00 -16.83145 -151.35729     208   0.0 Hōkūleʻa
  2022-05-17T21:09:11UTC 2022-05-17T11:09:11-10:00 2022-05-17T11:09:11-10:00 -16.83000 -151.35748     180   0.0 Hikianalia
  2022-05-17T20:18:12UTC 2022-05-17T10:18:12-10:00 2022-05-17T10:18:12-10:00 -16.83133 -151.35723     263   1.2 Hōkūleʻa
  2022-05-17T20:10:41UTC 2022-05-17T10:10:41-10:00 2022-05-17T10:10:41-10:00 -16.82998 -151.35748     272   1.4 Hikianalia
  2022-05-17T19:18:31UTC 2022-05-17T09:18:31-10:00 2022-05-17T09:18:31-10:00 -16.82909 -151.33733     307   4.2 Hōkūleʻa
  2022-05-17T19:10:20UTC 2022-05-17T09:10:20-10:00 2022-05-17T09:10:20-10:00 -16.83075 -151.33313     307   4.7 Hikianalia
  2022-05-17T18:18:39UTC 2022-05-17T08:18:39-10:00 2022-05-17T08:18:39-10:00 -16.87172 -151.27860     306   4.9 Hōkūleʻa
  2022-05-17T18:10:20UTC 2022-05-17T08:10:20-10:00 2022-05-17T08:10:20-10:00 -16.87803 -151.26859     304   4.6 Hikianalia
  2022-05-17T17:18:38UTC 2022-05-17T07:18:38-10:00 2022-05-17T07:18:38-10:00 -16.92032 -151.21000     299   5.0 Hōkūleʻa
  2022-05-17T17:09:16UTC 2022-05-17T07:09:16-10:00 2022-05-17T07:09:16-10:00 -16.92267 -151.20082     300   5.3 Hikianalia
  2022-05-17T16:18:52UTC 2022-05-17T06:18:52-10:00 2022-05-17T06:18:52-10:00 -16.96021 -151.13445     295   6.5 Hōkūleʻa
  2022-05-17T16:10:40UTC 2022-05-17T06:10:40-10:00 2022-05-17T06:10:40-10:00 -16.96576 -151.12220     297   6.5 Hikianalia
  2022-05-17T15:18:38UTC 2022-05-17T05:18:38-10:00 2022-05-17T05:18:38-10:00 -17.00698 -151.03182     297   6.7 Hōkūleʻa
  2022-05-17T15:10:18UTC 2022-05-17T05:10:18-10:00 2022-05-17T05:10:18-10:00 -17.01512 -151.02068     294   6.5 Hikianalia
  2022-05-17T14:18:43UTC 2022-05-17T04:18:43-10:00 2022-05-17T04:18:43-10:00 -17.05733 -150.92878     282   5.7 Hōkūleʻa
  2022-05-17T14:10:20UTC 2022-05-17T04:10:20-10:00 2022-05-17T04:10:20-10:00 -17.05972 -150.91683     282   5.6 Hikianalia
  2022-05-17T13:18:27UTC 2022-05-17T03:18:27-10:00 2022-05-17T03:18:27-10:00 -17.07726 -150.83214     292   6.2 Hōkūleʻa
  2022-05-17T13:10:07UTC 2022-05-17T03:10:07-10:00 2022-05-17T03:10:07-10:00 -17.07997 -150.82156     293   6.4 Hikianalia
  2022-05-17T12:18:48UTC 2022-05-17T02:18:48-10:00 2022-05-17T02:18:48-10:00 -17.11579 -150.73291     293   7.1 Hōkūleʻa
  2022-05-17T12:10:38UTC 2022-05-17T02:10:38-10:00 2022-05-17T02:10:38-10:00 -17.12074 -150.71976     292   7.1 Hikianalia
  2022-05-17T11:18:38UTC 2022-05-17T01:18:38-10:00 2022-05-17T01:18:38-10:00 -17.16122 -150.61902     292   8.7 Hōkūleʻa
  2022-05-17T11:10:26UTC 2022-05-17T01:10:26-10:00 2022-05-17T01:10:26-10:00 -17.16620 -150.60421     293   7.2 Hikianalia
  2022-05-17T10:28:06UTC 2022-05-17T00:28:06-10:00 2022-05-17T00:28:06-10:00 -17.20724 -150.50008     296   6.0 Hōkūleʻa
  2022-05-17T10:09:29UTC 2022-05-17T00:09:29-10:00 2022-05-17T00:09:29-10:00 -17.21342 -150.48658     294   7.0 Hikianalia
  2022-05-17T09:18:49UTC 2022-05-16T23:18:49-10:00 2022-05-16T23:18:49-10:00 -17.25879 -150.39232     288   7.0 Hōkūleʻa
  2022-05-17T09:10:12UTC 2022-05-16T23:10:12-10:00 2022-05-16T23:10:12-10:00 -17.26111 -150.37650     289   7.0 Hikianalia
  2022-05-17T08:18:38UTC 2022-05-16T22:18:38-10:00 2022-05-16T22:18:38-10:00 -17.29439 -150.27525     296   7.1 Hōkūleʻa
  2022-05-17T08:10:42UTC 2022-05-16T22:10:42-10:00 2022-05-16T22:10:42-10:00 -17.29916 -150.26207     295   7.2 Hikianalia
  2022-05-17T07:18:27UTC 2022-05-16T21:18:27-10:00 2022-05-16T21:18:27-10:00 -17.34600 -150.16328     287   8.1 Hōkūleʻa
  2022-05-17T07:10:13UTC 2022-05-16T21:10:13-10:00 2022-05-16T21:10:13-10:00 -17.34970 -150.14721     289   8.4 Hikianalia
  2022-05-17T06:26:29UTC 2022-05-16T20:26:29-10:00 2022-05-16T20:26:29-10:00 -17.38103 -150.04608     294   6.2 Hōkūleʻa
  2022-05-17T06:19:48UTC 2022-05-16T20:19:48-10:00 2022-05-16T20:19:48-10:00 -17.38752 -150.03058     295   5.8 Hikianalia
  2022-05-17T05:18:40UTC 2022-05-16T19:18:40-10:00 2022-05-16T19:18:40-10:00 -17.42855 -149.93435     290   6.1 Hōkūleʻa
  2022-05-17T05:10:09UTC 2022-05-16T19:10:09-10:00 2022-05-16T19:10:09-10:00 -17.43455 -149.92353     289   5.3 Hikianalia
  2022-05-17T04:23:56UTC 2022-05-16T18:23:56-10:00 2022-05-16T18:23:56-10:00 -17.46020 -149.84272     321   2.0 Hōkūleʻa
  2022-05-17T04:09:47UTC 2022-05-16T18:09:47-10:00 2022-05-16T18:09:47-10:00 -17.46356 -149.83596     327   1.8 Hikianalia
  2022-05-17T03:18:31UTC 2022-05-16T17:18:31-10:00 2022-05-16T17:18:31-10:00 -17.48897 -149.81848     180   0.0 Hōkūleʻa
  2022-05-17T03:10:11UTC 2022-05-16T17:10:11-10:00 2022-05-16T17:10:11-10:00 -17.48877 -149.81908       0   0.0 Hikianalia
  2022-05-16T08:10:15UTC 2022-05-15T22:10:15-10:00 2022-05-15T22:10:15-10:00 -17.48877 -149.81908     270   0.0 Hikianalia
  2022-05-16T06:29:37UTC 2022-05-15T20:29:37-10:00 2022-05-15T20:29:37-10:00 -17.48885 -149.81848      75   0.0 Hōkūleʻa
  2022-05-16T06:10:19UTC 2022-05-15T20:10:19-10:00 2022-05-15T20:10:19-10:00 -17.48877 -149.81875      97   0.1 Hikianalia
  2022-05-16T05:18:35UTC 2022-05-15T19:18:35-10:00 2022-05-15T19:18:35-10:00 -17.48886 -149.81852     219   1.6 Hōkūleʻa
  2022-05-16T05:09:15UTC 2022-05-15T19:09:15-10:00 2022-05-15T19:09:15-10:00 -17.48861 -149.82004     238   2.4 Hikianalia
  2022-05-16T04:18:29UTC 2022-05-15T18:18:29-10:00 2022-05-15T18:18:29-10:00 -17.46762 -149.80051     282   7.4 Hōkūleʻa
  2022-05-16T04:10:14UTC 2022-05-15T18:10:14-10:00 2022-05-15T18:10:14-10:00 -17.46739 -149.78515     284   7.4 Hikianalia
  2022-05-16T03:18:57UTC 2022-05-15T17:18:57-10:00 2022-05-15T17:18:57-10:00 -17.49338 -149.67544     297   6.1 Hōkūleʻa
  2022-05-16T03:10:18UTC 2022-05-15T17:10:18-10:00 2022-05-15T17:10:18-10:00 -17.49805 -149.66076     298   5.4 Hikianalia
  2022-05-16T02:18:53UTC 2022-05-15T16:18:53-10:00 2022-05-15T16:18:53-10:00 -17.54000 -149.58075     251   0.7 Hōkūleʻa
  2022-05-16T02:10:50UTC 2022-05-15T16:10:50-10:00 2022-05-15T16:10:50-10:00 -17.53961 -149.57793     248   0.6 Hikianalia
  2022-05-16T01:18:24UTC 2022-05-15T15:18:24-10:00 2022-05-15T15:18:24-10:00 -17.53613 -149.56901       0   0.0 Hōkūleʻa
  2022-05-16T01:10:11UTC 2022-05-15T15:10:11-10:00 2022-05-15T15:10:11-10:00 -17.53599 -149.56849      91   0.0 Hikianalia
  2022-05-08T04:18:26UTC 2022-05-07T18:18:26-10:00 2022-05-07T18:18:26-10:00 -17.53614 -149.56901     135   0.0 Hōkūleʻa
  2022-05-08T04:10:18UTC 2022-05-07T18:10:18-10:00 2022-05-07T18:10:18-10:00 -17.53598 -149.56912     151   0.0 Hikianalia
  2022-05-08T03:18:39UTC 2022-05-07T17:18:39-10:00 2022-05-07T17:18:39-10:00 -17.53612 -149.56903      44   0.5 Hōkūleʻa
  2022-05-08T03:10:17UTC 2022-05-07T17:10:17-10:00 2022-05-07T17:10:17-10:00 -17.53591 -149.56916      43   0.5 Hikianalia
  2022-05-08T02:17:43UTC 2022-05-07T16:17:43-10:00 2022-05-07T16:17:43-10:00 -17.54187 -149.57476      84   0.0 Hōkūleʻa
  2022-05-08T02:09:50UTC 2022-05-07T16:09:50-10:00 2022-05-07T16:09:50-10:00 -17.54201 -149.57508     180   0.0 Hikianalia
  2022-05-08T01:18:25UTC 2022-05-07T15:18:25-10:00 2022-05-07T15:18:25-10:00 -17.54188 -149.57487     270   0.0 Hōkūleʻa
  2022-05-08T01:10:14UTC 2022-05-07T15:10:14-10:00 2022-05-07T15:10:14-10:00 -17.54199 -149.57508     277   0.0 Hikianalia
  2022-05-08T00:17:28UTC 2022-05-07T14:17:28-10:00 2022-05-07T14:17:28-10:00 -17.54188 -149.57472     179   1.6 Hōkūleʻa
  2022-05-08T00:09:21UTC 2022-05-07T14:09:21-10:00 2022-05-07T14:09:21-10:00 -17.54201 -149.57489     190   2.1 Hikianalia
  2022-05-07T23:18:48UTC 2022-05-07T13:18:48-10:00 2022-05-07T13:18:48-10:00 -17.51600 -149.57538     217   5.3 Hōkūleʻa
  2022-05-07T23:10:20UTC 2022-05-07T13:10:20-10:00 2022-05-07T13:10:20-10:00 -17.50722 -149.56864     217   4.8 Hikianalia
  2022-05-07T22:27:40UTC 2022-05-07T12:27:40-10:00 2022-05-07T12:27:40-10:00 -17.45631 -149.52770     219   7.4 Hōkūleʻa
  2022-05-07T22:09:41UTC 2022-05-07T12:09:41-10:00 2022-05-07T12:09:41-10:00 -17.44227 -149.51762     220   8.8 Hikianalia
  2022-05-07T21:17:41UTC 2022-05-07T11:17:41-10:00 2022-05-07T11:17:41-10:00 -17.34412 -149.43172     222   8.7 Hōkūleʻa
  2022-05-07T21:10:12UTC 2022-05-07T11:10:12-10:00 2022-05-07T11:10:12-10:00 -17.33092 -149.41868     221   8.5 Hikianalia
  2022-05-07T20:18:39UTC 2022-05-07T10:18:39-10:00 2022-05-07T10:18:39-10:00 -17.23790 -149.33186     218   8.3 Hōkūleʻa
  2022-05-07T20:10:17UTC 2022-05-07T10:10:17-10:00 2022-05-07T10:10:17-10:00 -17.22409 -149.32044     217   8.4 Hikianalia
  2022-05-07T19:17:39UTC 2022-05-07T09:17:39-10:00 2022-05-07T09:17:39-10:00 -17.12671 -149.24111     214   8.3 Hōkūleʻa
  2022-05-07T19:10:20UTC 2022-05-07T09:10:20-10:00 2022-05-07T09:10:20-10:00 -17.11251 -149.23135     214   8.1 Hikianalia
  2022-05-07T18:18:42UTC 2022-05-07T08:18:42-10:00 2022-05-07T08:18:42-10:00 -17.01327 -149.16148     218   8.0 Hōkūleʻa
  2022-05-07T18:09:39UTC 2022-05-07T08:09:39-10:00 2022-05-07T08:09:39-10:00 -16.99972 -149.15174     219   8.0 Hikianalia
  2022-05-07T17:18:39UTC 2022-05-07T07:18:39-10:00 2022-05-07T07:18:39-10:00 -16.90876 -149.07514     216   7.6 Hōkūleʻa
  2022-05-07T17:10:09UTC 2022-05-07T07:10:09-10:00 2022-05-07T07:10:09-10:00 -16.89592 -149.06439     215   7.4 Hikianalia
  2022-05-07T16:19:25UTC 2022-05-07T06:19:25-10:00 2022-05-07T06:19:25-10:00 -16.80734 -148.99892     209   7.0 Hōkūleʻa
  2022-05-07T16:10:19UTC 2022-05-07T06:10:19-10:00 2022-05-07T06:10:19-10:00 -16.79528 -148.99148     209   8.6 Hikianalia
  2022-05-07T15:19:39UTC 2022-05-07T05:19:39-10:00 2022-05-07T05:19:39-10:00 -16.68878 -148.92991     211   6.7 Hikianalia
  2022-05-07T15:17:50UTC 2022-05-07T05:17:50-10:00 2022-05-07T05:17:50-10:00 -16.70160 -148.93835     212   7.1 Hōkūleʻa
  2022-05-07T14:18:44UTC 2022-05-07T04:18:44-10:00 2022-05-07T04:18:44-10:00 -16.60193 -148.87421     205   9.7 Hōkūleʻa
  2022-05-07T14:17:47UTC 2022-05-07T04:17:47-10:00 2022-05-07T04:17:47-10:00 -16.58966 -148.86818     205   6.2 Hikianalia
  2022-05-07T13:35:53UTC 2022-05-07T03:35:53-10:00 2022-05-07T03:35:53-10:00 -16.49680 -148.82445     208   5.3 Hōkūleʻa
  2022-05-07T13:10:13UTC 2022-05-07T03:10:13-10:00 2022-05-07T03:10:13-10:00 -16.48416 -148.81831     209   6.9 Hikianalia
  2022-05-07T12:18:41UTC 2022-05-07T02:18:41-10:00 2022-05-07T02:18:41-10:00 -16.39619 -148.76874     203   6.8 Hōkūleʻa
  2022-05-07T12:11:27UTC 2022-05-07T02:11:27-10:00 2022-05-07T02:11:27-10:00 -16.38460 -148.76111     202   6.7 Hikianalia
  2022-05-07T11:18:35UTC 2022-05-07T01:18:35-10:00 2022-05-07T01:18:35-10:00 -16.29164 -148.72261     210   6.9 Hōkūleʻa
  2022-05-07T11:10:34UTC 2022-05-07T01:10:34-10:00 2022-05-07T01:10:34-10:00 -16.27940 -148.71613     210   6.9 Hikianalia
  2022-05-07T10:18:43UTC 2022-05-07T00:18:43-10:00 2022-05-07T00:18:43-10:00 -16.19096 -148.66328     222   7.1 Hōkūleʻa
  2022-05-07T10:09:47UTC 2022-05-07T00:09:47-10:00 2022-05-07T00:09:47-10:00 -16.17871 -148.65543     224   7.2 Hikianalia
  2022-05-07T09:18:32UTC 2022-05-06T23:18:32-10:00 2022-05-06T23:18:32-10:00 -16.10184 -148.58153     215   7.2 Hōkūleʻa
  2022-05-07T09:10:12UTC 2022-05-06T23:10:12-10:00 2022-05-06T23:10:12-10:00 -16.09259 -148.56878     212   7.3 Hikianalia
  2022-05-07T08:18:30UTC 2022-05-06T22:18:30-10:00 2022-05-06T22:18:30-10:00 -16.00213 -148.51001     206   7.4 Hōkūleʻa
  2022-05-07T08:10:09UTC 2022-05-06T22:10:09-10:00 2022-05-06T22:10:09-10:00 -15.98821 -148.50200     205   7.3 Hikianalia
  2022-05-07T07:18:59UTC 2022-05-06T21:18:59-10:00 2022-05-06T21:18:59-10:00 -15.89179 -148.45439     207   7.4 Hōkūleʻa
  2022-05-07T07:10:18UTC 2022-05-06T21:10:18-10:00 2022-05-06T21:10:18-10:00 -15.87805 -148.44789     207   7.4 Hikianalia
  2022-05-07T06:19:43UTC 2022-05-06T20:19:43-10:00 2022-05-06T20:19:43-10:00 -15.78273 -148.39727     212   7.4 Hōkūleʻa
  2022-05-07T06:10:52UTC 2022-05-06T20:10:52-10:00 2022-05-06T20:10:52-10:00 -15.76953 -148.39053     212   7.5 Hikianalia
  2022-05-07T05:18:50UTC 2022-05-06T19:18:50-10:00 2022-05-06T19:18:50-10:00 -15.67595 -148.32826     214   7.4 Hōkūleʻa
  2022-05-07T05:10:10UTC 2022-05-06T19:10:10-10:00 2022-05-06T19:10:10-10:00 -15.66231 -148.32101     214   7.4 Hikianalia
  2022-05-07T04:18:34UTC 2022-05-06T18:18:34-10:00 2022-05-06T18:18:34-10:00 -15.57268 -148.25694     208   7.2 Hōkūleʻa
  2022-05-07T04:10:23UTC 2022-05-06T18:10:23-10:00 2022-05-06T18:10:23-10:00 -15.55961 -148.24971     208   7.2 Hikianalia
  2022-05-07T03:18:40UTC 2022-05-06T17:18:40-10:00 2022-05-06T17:18:40-10:00 -15.46604 -148.19795     205   7.2 Hōkūleʻa
  2022-05-07T03:10:12UTC 2022-05-06T17:10:12-10:00 2022-05-06T17:10:12-10:00 -15.45285 -148.19091     205   7.1 Hikianalia
  2022-05-07T02:18:49UTC 2022-05-06T16:18:49-10:00 2022-05-06T16:18:49-10:00 -15.35647 -148.14555     215   7.3 Hōkūleʻa
  2022-05-07T02:09:49UTC 2022-05-06T16:09:49-10:00 2022-05-06T16:09:49-10:00 -15.34393 -148.13900     215   7.5 Hikianalia
  2022-05-07T01:18:49UTC 2022-05-06T15:18:49-10:00 2022-05-06T15:18:49-10:00 -15.25622 -148.07356     213   7.1 Hōkūleʻa
  2022-05-07T01:10:21UTC 2022-05-06T15:10:21-10:00 2022-05-06T15:10:21-10:00 -15.24301 -148.06547     212   6.9 Hikianalia
  2022-05-07T00:17:23UTC 2022-05-06T14:17:23-10:00 2022-05-06T14:17:23-10:00 -15.15390 -148.00595     209   6.3 Hōkūleʻa
  2022-05-07T00:09:11UTC 2022-05-06T14:09:11-10:00 2022-05-06T14:09:11-10:00 -15.14432 -148.00082     210   6.2 Hikianalia
  2022-05-06T23:18:37UTC 2022-05-06T13:18:37-10:00 2022-05-06T13:18:37-10:00 -15.06403 -147.95370     212   6.5 Hōkūleʻa
  2022-05-06T23:09:42UTC 2022-05-06T13:09:42-10:00 2022-05-06T13:09:42-10:00 -15.05453 -147.94805     213   6.7 Hikianalia
  2022-05-06T22:18:51UTC 2022-05-06T12:18:51-10:00 2022-05-06T12:18:51-10:00 -14.97256 -147.89460     235   6.1 Hōkūleʻa
  2022-05-06T22:10:11UTC 2022-05-06T12:10:11-10:00 2022-05-06T12:10:11-10:00 -14.96125 -147.88593     242   6.0 Hikianalia
  2022-05-06T21:17:41UTC 2022-05-06T11:17:41-10:00 2022-05-06T11:17:41-10:00 -14.91260 -147.80766     281   5.6 Hōkūleʻa
  2022-05-06T21:09:18UTC 2022-05-06T11:09:18-10:00 2022-05-06T11:09:18-10:00 -14.91393 -147.79304     286   4.9 Hikianalia
  2022-05-06T20:17:27UTC 2022-05-06T10:17:27-10:00 2022-05-06T10:17:27-10:00 -14.93010 -147.71277      16   1.1 Hōkūleʻa
  2022-05-06T20:09:42UTC 2022-05-06T10:09:42-10:00 2022-05-06T10:09:42-10:00 -14.93619 -147.71243      25   0.8 Hikianalia
  2022-05-06T19:18:33UTC 2022-05-06T09:18:33-10:00 2022-05-06T09:18:33-10:00 -14.94726 -147.71770     323   0.0 Hōkūleʻa
  2022-05-06T19:10:14UTC 2022-05-06T09:10:14-10:00 2022-05-06T09:10:14-10:00 -14.94769 -147.71805      25   0.0 Hikianalia
  2022-05-06T04:18:34UTC 2022-05-05T18:18:34-10:00 2022-05-05T18:18:34-10:00 -14.94740 -147.71760       0   0.0 Hōkūleʻa
  2022-05-06T04:10:33UTC 2022-05-05T18:10:33-10:00 2022-05-05T18:10:33-10:00 -14.94818 -147.71828     166   0.0 Hikianalia
  2022-05-06T03:26:16UTC 2022-05-05T17:26:16-10:00 2022-05-05T17:26:16-10:00 -14.94741 -147.71760     185   1.4 Hōkūleʻa
  2022-05-06T03:09:20UTC 2022-05-05T17:09:20-10:00 2022-05-05T17:09:20-10:00 -14.94758 -147.71843     197   1.5 Hikianalia
  2022-05-06T02:17:42UTC 2022-05-05T16:17:42-10:00 2022-05-05T16:17:42-10:00 -14.92100 -147.71543     286   7.4 Hōkūleʻa
  2022-05-06T02:10:42UTC 2022-05-05T16:10:42-10:00 2022-05-05T16:10:42-10:00 -14.92459 -147.71118     285   8.0 Hikianalia
  2022-05-06T01:18:40UTC 2022-05-05T15:18:40-10:00 2022-05-05T15:18:40-10:00 -14.95424 -147.59501     287   7.9 Hōkūleʻa
  2022-05-06T01:10:23UTC 2022-05-05T15:10:23-10:00 2022-05-05T15:10:23-10:00 -14.95894 -147.57789     288   7.8 Hikianalia
  2022-05-06T00:17:27UTC 2022-05-05T14:17:27-10:00 2022-05-05T14:17:27-10:00 -14.99446 -147.46328     284   8.0 Hōkūleʻa
  2022-05-06T00:09:17UTC 2022-05-05T14:09:17-10:00 2022-05-05T14:09:17-10:00 -14.99919 -147.44715     283   9.2 Hikianalia
  2022-05-05T23:17:31UTC 2022-05-05T13:17:31-10:00 2022-05-05T13:17:31-10:00 -15.02665 -147.32930     284   8.3 Hōkūleʻa
  2022-05-05T23:16:41UTC 2022-05-05T13:16:41-10:00 2022-05-05T13:16:41-10:00 -15.03027 -147.31248     284   7.2 Hikianalia
  2022-05-05T22:18:53UTC 2022-05-05T12:18:53-10:00 2022-05-05T12:18:53-10:00 -15.05930 -147.19414     281   8.7 Hōkūleʻa
  2022-05-05T22:09:49UTC 2022-05-05T12:09:49-10:00 2022-05-05T12:09:49-10:00 -15.06374 -147.17856     280   7.8 Hikianalia
  2022-05-05T21:24:52UTC 2022-05-05T11:24:52-10:00 2022-05-05T11:24:52-10:00 -15.08419 -147.06099     283   6.8 Hōkūleʻa
  2022-05-05T21:09:19UTC 2022-05-05T11:09:19-10:00 2022-05-05T11:09:19-10:00 -15.08708 -147.04445     283   7.7 Hikianalia
  2022-05-05T20:17:35UTC 2022-05-05T10:17:35-10:00 2022-05-05T10:17:35-10:00 -15.11303 -146.93214     287   8.1 Hōkūleʻa
  2022-05-05T20:10:09UTC 2022-05-05T10:10:09-10:00 2022-05-05T10:10:09-10:00 -15.11562 -146.91620     288   9.2 Hikianalia
  2022-05-05T19:18:39UTC 2022-05-05T09:18:39-10:00 2022-05-05T09:18:39-10:00 -15.15100 -146.80150     285   5.2 Hōkūleʻa
  2022-05-05T19:18:30UTC 2022-05-05T09:18:30-10:00 2022-05-05T09:18:30-10:00 -15.15692 -146.78698     280   4.1 Hikianalia
  2022-05-05T18:18:50UTC 2022-05-05T08:18:50-10:00 2022-05-05T08:18:50-10:00 -15.17385 -146.71505     272   3.0 Hōkūleʻa
  2022-05-05T18:09:48UTC 2022-05-05T08:09:48-10:00 2022-05-05T08:09:48-10:00 -15.17025 -146.70707     253   2.5 Hikianalia
  2022-05-05T17:17:46UTC 2022-05-05T07:17:46-10:00 2022-05-05T07:17:46-10:00 -15.17552 -146.66171     257   2.9 Hōkūleʻa
  2022-05-05T17:10:12UTC 2022-05-05T07:10:12-10:00 2022-05-05T07:10:12-10:00 -15.15809 -146.66639     266   2.8 Hikianalia
  2022-05-05T16:18:26UTC 2022-05-05T06:18:26-10:00 2022-05-05T06:18:26-10:00 -15.16446 -146.61349     219   0.7 Hōkūleʻa
  2022-05-05T16:10:11UTC 2022-05-05T06:10:11-10:00 2022-05-05T06:10:11-10:00 -15.15513 -146.61879     219   0.6 Hikianalia
  2022-05-05T15:18:26UTC 2022-05-05T05:18:26-10:00 2022-05-05T05:18:26-10:00 -15.15518 -146.60583     201   0.4 Hōkūleʻa
  2022-05-05T15:10:18UTC 2022-05-05T05:10:18-10:00 2022-05-05T05:10:18-10:00 -15.14748 -146.61238     228   0.5 Hikianalia
  2022-05-05T14:18:56UTC 2022-05-05T04:18:56-10:00 2022-05-05T04:18:56-10:00 -15.14914 -146.60345     190   0.6 Hōkūleʻa
  2022-05-05T14:10:41UTC 2022-05-05T04:10:41-10:00 2022-05-05T04:10:41-10:00 -15.14209 -146.60611     215   0.6 Hikianalia
  2022-05-05T13:18:35UTC 2022-05-05T03:18:35-10:00 2022-05-05T03:18:35-10:00 -15.13986 -146.60169     188   1.4 Hōkūleʻa
  2022-05-05T13:09:16UTC 2022-05-05T03:09:16-10:00 2022-05-05T03:09:16-10:00 -15.13316 -146.59970     181   1.9 Hikianalia
  2022-05-05T12:19:25UTC 2022-05-05T02:19:25-10:00 2022-05-05T02:19:25-10:00 -15.11763 -146.59858     177   4.3 Hōkūleʻa
  2022-05-05T12:10:11UTC 2022-05-05T02:10:11-10:00 2022-05-05T02:10:11-10:00 -15.10178 -146.59924     173   4.9 Hikianalia
  2022-05-05T11:18:42UTC 2022-05-05T01:18:42-10:00 2022-05-05T01:18:42-10:00 -15.04436 -146.60274     169   3.7 Hōkūleʻa
  2022-05-05T11:10:11UTC 2022-05-05T01:10:11-10:00 2022-05-05T01:10:11-10:00 -15.01982 -146.60944     171   3.3 Hikianalia
  2022-05-05T10:18:53UTC 2022-05-05T00:18:53-10:00 2022-05-05T00:18:53-10:00 -14.98401 -146.61508     183   3.4 Hōkūleʻa
  2022-05-05T10:10:50UTC 2022-05-05T00:10:50-10:00 2022-05-05T00:10:50-10:00 -14.96602 -146.61791     184   3.5 Hikianalia
  2022-05-05T09:17:41UTC 2022-05-04T23:17:41-10:00 2022-05-04T23:17:41-10:00 -14.92533 -146.61227     182   4.1 Hōkūleʻa
  2022-05-05T09:10:20UTC 2022-05-04T23:10:20-10:00 2022-05-04T23:10:20-10:00 -14.90717 -146.61351     181   4.1 Hikianalia
  2022-05-05T08:18:30UTC 2022-05-04T22:18:30-10:00 2022-05-04T22:18:30-10:00 -14.85829 -146.61006     178   4.3 Hōkūleʻa
  2022-05-05T08:10:17UTC 2022-05-04T22:10:17-10:00 2022-05-04T22:10:17-10:00 -14.83882 -146.61236     172   4.0 Hikianalia
  2022-05-05T07:18:29UTC 2022-05-04T21:18:29-10:00 2022-05-04T21:18:29-10:00 -14.78690 -146.61274     164   5.4 Hōkūleʻa
  2022-05-05T07:10:19UTC 2022-05-04T21:10:19-10:00 2022-05-04T21:10:19-10:00 -14.77173 -146.62167     167   5.2 Hikianalia
  2022-05-05T06:18:52UTC 2022-05-04T20:18:52-10:00 2022-05-04T20:18:52-10:00 -14.70068 -146.63737     167   7.9 Hōkūleʻa
  2022-05-05T06:10:48UTC 2022-05-04T20:10:48-10:00 2022-05-04T20:10:48-10:00 -14.68681 -146.64186     168   8.1 Hikianalia
  2022-05-05T05:18:36UTC 2022-05-04T19:18:36-10:00 2022-05-04T19:18:36-10:00 -14.57155 -146.66821     169   8.9 Hōkūleʻa
  2022-05-05T05:10:18UTC 2022-05-04T19:10:18-10:00 2022-05-04T19:10:18-10:00 -14.55252 -146.67216     172   8.9 Hikianalia
  2022-05-05T04:18:35UTC 2022-05-04T18:18:35-10:00 2022-05-04T18:18:35-10:00 -14.42476 -146.69733     189   9.0 Hōkūleʻa
  2022-05-05T04:10:29UTC 2022-05-04T18:10:29-10:00 2022-05-04T18:10:29-10:00 -14.40518 -146.69417     189   8.9 Hikianalia
  2022-05-05T03:18:38UTC 2022-05-04T17:18:38-10:00 2022-05-04T17:18:38-10:00 -14.27674 -146.67310     193   8.9 Hōkūleʻa
  2022-05-05T03:10:20UTC 2022-05-04T17:10:20-10:00 2022-05-04T17:10:20-10:00 -14.25722 -146.67147     195   9.0 Hikianalia
  2022-05-05T02:18:44UTC 2022-05-04T16:18:44-10:00 2022-05-04T16:18:44-10:00 -14.13203 -146.63768     190   8.9 Hōkūleʻa
  2022-05-05T02:10:51UTC 2022-05-04T16:10:51-10:00 2022-05-04T16:10:51-10:00 -14.11372 -146.63184     190   9.0 Hikianalia
  2022-05-05T01:17:43UTC 2022-05-04T15:17:43-10:00 2022-05-04T15:17:43-10:00 -13.98347 -146.61105     200   9.2 Hōkūleʻa
  2022-05-05T01:10:21UTC 2022-05-04T15:10:21-10:00 2022-05-04T15:10:21-10:00 -13.96490 -146.60412     199   9.1 Hikianalia
  2022-05-05T00:18:32UTC 2022-05-04T14:18:32-10:00 2022-05-04T14:18:32-10:00 -13.84103 -146.55856     200   8.6 Hōkūleʻa
  2022-05-05T00:10:19UTC 2022-05-04T14:10:19-10:00 2022-05-04T14:10:19-10:00 -13.82137 -146.55270     202   8.4 Hikianalia
  2022-05-04T23:17:38UTC 2022-05-04T13:17:38-10:00 2022-05-04T13:17:38-10:00 -13.70415 -146.50788     212   4.7 Hōkūleʻa
  2022-05-04T23:09:17UTC 2022-05-04T13:09:17-10:00 2022-05-04T13:09:17-10:00 -13.68889 -146.49891     206   3.9 Hikianalia
  2022-05-04T22:18:52UTC 2022-05-04T12:18:52-10:00 2022-05-04T12:18:52-10:00 -13.63840 -146.46548     174   4.4 Hōkūleʻa
  2022-05-04T22:09:40UTC 2022-05-04T12:09:40-10:00 2022-05-04T12:09:40-10:00 -13.62977 -146.46990     169   4.7 Hikianalia
  2022-05-04T21:17:36UTC 2022-05-04T11:17:36-10:00 2022-05-04T11:17:36-10:00 -13.56435 -146.47329     159   5.6 Hōkūleʻa
  2022-05-04T21:09:10UTC 2022-05-04T11:09:10-10:00 2022-05-04T11:09:10-10:00 -13.55260 -146.48556     162   5.6 Hikianalia
  2022-05-04T20:18:39UTC 2022-05-04T10:18:39-10:00 2022-05-04T10:18:39-10:00 -13.47812 -146.50786     163   5.9 Hōkūleʻa
  2022-05-04T20:10:17UTC 2022-05-04T10:10:17-10:00 2022-05-04T10:10:17-10:00 -13.46571 -146.51455     162   6.0 Hikianalia
  2022-05-04T19:17:56UTC 2022-05-04T09:17:56-10:00 2022-05-04T09:17:56-10:00 -13.38213 -146.53794     167   6.3 Hōkūleʻa
  2022-05-04T19:09:20UTC 2022-05-04T09:09:20-10:00 2022-05-04T09:09:20-10:00 -13.36855 -146.54715     171   7.7 Hikianalia
  2022-05-04T18:20:17UTC 2022-05-04T08:20:17-10:00 2022-05-04T08:20:17-10:00 -13.26450 -146.56416     173   5.3 Hikianalia
  2022-05-04T18:18:49UTC 2022-05-04T08:18:49-10:00 2022-05-04T08:18:49-10:00 -13.28027 -146.56199     174   6.9 Hōkūleʻa
  2022-05-04T17:27:27UTC 2022-05-04T07:27:27-10:00 2022-05-04T07:27:27-10:00 -13.18181 -146.57292     175   4.6 Hōkūleʻa
  2022-05-04T17:10:14UTC 2022-05-04T07:10:14-10:00 2022-05-04T07:10:14-10:00 -13.16129 -146.57755     172   5.2 Hikianalia
  2022-05-04T16:18:38UTC 2022-05-04T06:18:38-10:00 2022-05-04T06:18:38-10:00 -13.09313 -146.58133     173   5.3 Hōkūleʻa
  2022-05-04T16:10:21UTC 2022-05-04T06:10:21-10:00 2022-05-04T06:10:21-10:00 -13.07503 -146.58922     175   5.4 Hikianalia
  2022-05-04T15:18:35UTC 2022-05-04T05:18:35-10:00 2022-05-04T05:18:35-10:00 -13.00449 -146.59319     176   5.3 Hōkūleʻa
  2022-05-04T15:10:18UTC 2022-05-04T05:10:18-10:00 2022-05-04T05:10:18-10:00 -12.98537 -146.59723     178   5.2 Hikianalia
  2022-05-04T14:18:40UTC 2022-05-04T04:18:40-10:00 2022-05-04T04:18:40-10:00 -12.91531 -146.60008     175   4.9 Hōkūleʻa
  2022-05-04T14:10:47UTC 2022-05-04T04:10:47-10:00 2022-05-04T04:10:47-10:00 -12.89868 -146.60096     167   4.8 Hikianalia
  2022-05-04T13:18:40UTC 2022-05-04T03:18:40-10:00 2022-05-04T03:18:40-10:00 -12.83368 -146.60768     153   4.3 Hōkūleʻa
  2022-05-04T13:10:14UTC 2022-05-04T03:10:14-10:00 2022-05-04T03:10:14-10:00 -12.81894 -146.61939     162   4.6 Hikianalia
  2022-05-04T12:18:31UTC 2022-05-04T02:18:31-10:00 2022-05-04T02:18:31-10:00 -12.76911 -146.64171     173   4.7 Hōkūleʻa
  2022-05-04T12:10:11UTC 2022-05-04T02:10:11-10:00 2022-05-04T02:10:11-10:00 -12.74638 -146.64388     167   4.6 Hikianalia
  2022-05-04T11:18:36UTC 2022-05-04T01:18:36-10:00 2022-05-04T01:18:36-10:00 -12.69127 -146.65207     169   5.2 Hōkūleʻa
  2022-05-04T11:10:09UTC 2022-05-04T01:10:09-10:00 2022-05-04T01:10:09-10:00 -12.67106 -146.66115     172   5.1 Hikianalia
  2022-05-04T10:18:52UTC 2022-05-04T00:18:52-10:00 2022-05-04T00:18:52-10:00 -12.60598 -146.66872     181   4.7 Hōkūleʻa
  2022-05-04T10:10:50UTC 2022-05-04T00:10:50-10:00 2022-05-04T00:10:50-10:00 -12.58694 -146.67274     181   4.9 Hikianalia
  2022-05-04T09:18:40UTC 2022-05-03T23:18:40-10:00 2022-05-03T23:18:40-10:00 -12.52720 -146.66720     178   5.0 Hōkūleʻa
  2022-05-04T09:10:20UTC 2022-05-03T23:10:20-10:00 2022-05-03T23:10:20-10:00 -12.50357 -146.67070     177   5.3 Hikianalia
  2022-05-04T08:18:30UTC 2022-05-03T22:18:30-10:00 2022-05-03T22:18:30-10:00 -12.44278 -146.66988     174   5.7 Hōkūleʻa
  2022-05-04T08:10:26UTC 2022-05-03T22:10:26-10:00 2022-05-03T22:10:26-10:00 -12.41495 -146.67546     175   4.8 Hikianalia
  2022-05-04T07:18:41UTC 2022-05-03T21:18:41-10:00 2022-05-03T21:18:41-10:00 -12.34849 -146.67986     176   4.6 Hōkūleʻa
  2022-05-04T07:10:22UTC 2022-05-03T21:10:22-10:00 2022-05-03T21:10:22-10:00 -12.33554 -146.68289     175   4.7 Hikianalia
  2022-05-04T06:18:50UTC 2022-05-03T20:18:50-10:00 2022-05-03T20:18:50-10:00 -12.27192 -146.68546     181   5.7 Hōkūleʻa
  2022-05-04T06:10:46UTC 2022-05-03T20:10:46-10:00 2022-05-03T20:10:46-10:00 -12.25703 -146.68997     181   4.9 Hikianalia
  2022-05-04T05:25:44UTC 2022-05-03T19:25:44-10:00 2022-05-03T19:25:44-10:00 -12.18785 -146.68409     183   4.5 Hōkūleʻa
  2022-05-04T05:10:17UTC 2022-05-03T19:10:17-10:00 2022-05-03T19:10:17-10:00 -12.17375 -146.68810     185   5.1 Hikianalia
  2022-05-04T04:18:35UTC 2022-05-03T18:18:35-10:00 2022-05-03T18:18:35-10:00 -12.10385 -146.67978     187   4.9 Hōkūleʻa
  2022-05-04T04:10:22UTC 2022-05-03T18:10:22-10:00 2022-05-03T18:10:22-10:00 -12.08807 -146.68048     186   4.9 Hikianalia
  2022-05-04T03:18:32UTC 2022-05-03T17:18:32-10:00 2022-05-03T17:18:32-10:00 -12.02241 -146.66976     177   6.3 Hōkūleʻa
  2022-05-04T03:10:12UTC 2022-05-03T17:10:12-10:00 2022-05-03T17:10:12-10:00 -12.00680 -146.67235     182   5.6 Hikianalia
  2022-05-04T02:26:35UTC 2022-05-03T16:26:35-10:00 2022-05-03T16:26:35-10:00 -11.93172 -146.67463     176   4.7 Hōkūleʻa
  2022-05-04T02:09:53UTC 2022-05-03T16:09:53-10:00 2022-05-03T16:09:53-10:00 -11.91228 -146.66843     174   5.3 Hikianalia
  2022-05-04T01:18:38UTC 2022-05-03T15:18:38-10:00 2022-05-03T15:18:38-10:00 -11.84377 -146.68141     170   5.8 Hōkūleʻa
  2022-05-04T01:10:20UTC 2022-05-03T15:10:20-10:00 2022-05-03T15:10:20-10:00 -11.82490 -146.67802     171   5.7 Hikianalia
  2022-05-04T00:17:30UTC 2022-05-03T14:17:30-10:00 2022-05-03T14:17:30-10:00 -11.74580 -146.69814     182   4.9 Hōkūleʻa
  2022-05-04T00:10:20UTC 2022-05-03T14:10:20-10:00 2022-05-03T14:10:20-10:00 -11.72996 -146.69379     175   4.7 Hikianalia
  2022-05-03T23:18:35UTC 2022-05-03T13:18:35-10:00 2022-05-03T13:18:35-10:00 -11.66599 -146.69555     162   5.9 Hōkūleʻa
  2022-05-03T23:09:17UTC 2022-05-03T13:09:17-10:00 2022-05-03T13:09:17-10:00 -11.64996 -146.70027     164   6.2 Hikianalia
  2022-05-03T22:17:50UTC 2022-05-03T12:17:50-10:00 2022-05-03T12:17:50-10:00 -11.57149 -146.72720     166   9.2 Hōkūleʻa
  2022-05-03T22:09:51UTC 2022-05-03T12:09:51-10:00 2022-05-03T12:09:51-10:00 -11.55089 -146.72911     166   6.0 Hikianalia
  2022-05-03T21:37:30UTC 2022-05-03T11:37:30-10:00 2022-05-03T11:37:30-10:00 -11.47151 -146.75239     176   3.6 Hōkūleʻa
  2022-05-03T21:09:20UTC 2022-05-03T11:09:20-10:00 2022-05-03T11:09:20-10:00 -11.45213 -146.75335     175   4.0 Hikianalia
  2022-05-03T20:18:38UTC 2022-05-03T10:18:38-10:00 2022-05-03T10:18:38-10:00 -11.39362 -146.75857     156   5.9 Hōkūleʻa
  2022-05-03T20:09:16UTC 2022-05-03T10:09:16-10:00 2022-05-03T10:09:16-10:00 -11.38470 -146.75887     157   6.1 Hikianalia
  2022-05-03T19:29:04UTC 2022-05-03T09:29:04-10:00 2022-05-03T09:29:04-10:00 -11.31945 -146.79281     161   5.1 Hōkūleʻa
  2022-05-03T19:10:12UTC 2022-05-03T09:10:12-10:00 2022-05-03T09:10:12-10:00 -11.29243 -146.79794     166   5.5 Hikianalia
  2022-05-03T18:18:51UTC 2022-05-03T08:18:51-10:00 2022-05-03T08:18:51-10:00 -11.22455 -146.82565     165   4.6 Hōkūleʻa
  2022-05-03T18:10:49UTC 2022-05-03T08:10:49-10:00 2022-05-03T08:10:49-10:00 -11.20396 -146.81966     166   4.3 Hikianalia
  2022-05-03T17:18:29UTC 2022-05-03T07:18:29-10:00 2022-05-03T07:18:29-10:00 -11.14993 -146.84524     173   4.3 Hōkūleʻa
  2022-05-03T17:10:11UTC 2022-05-03T07:10:11-10:00 2022-05-03T07:10:11-10:00 -11.13278 -146.83783     162   4.9 Hikianalia
  2022-05-03T16:18:36UTC 2022-05-03T06:18:36-10:00 2022-05-03T06:18:36-10:00 -11.07891 -146.85468     158   5.1 Hōkūleʻa
  2022-05-03T16:10:21UTC 2022-05-03T06:10:21-10:00 2022-05-03T06:10:21-10:00 -11.05567 -146.86309     160   4.4 Hikianalia
  2022-05-03T15:18:35UTC 2022-05-03T05:18:35-10:00 2022-05-03T05:18:35-10:00 -10.99963 -146.88639     182   2.7 Hōkūleʻa
  2022-05-03T15:10:18UTC 2022-05-03T05:10:18-10:00 2022-05-03T05:10:18-10:00 -10.98715 -146.88892     175   3.2 Hikianalia
  2022-05-03T14:18:51UTC 2022-05-03T04:18:51-10:00 2022-05-03T04:18:51-10:00 -10.95465 -146.88497     174   4.7 Hōkūleʻa
  2022-05-03T14:10:52UTC 2022-05-03T04:10:52-10:00 2022-05-03T04:10:52-10:00 -10.93361 -146.89362     170   4.7 Hikianalia
  2022-05-03T13:18:41UTC 2022-05-03T03:18:41-10:00 2022-05-03T03:18:41-10:00 -10.87669 -146.89294     161   4.7 Hōkūleʻa
  2022-05-03T13:10:12UTC 2022-05-03T03:10:12-10:00 2022-05-03T03:10:12-10:00 -10.85443 -146.90710     162   4.0 Hikianalia
  2022-05-03T12:18:41UTC 2022-05-03T02:18:41-10:00 2022-05-03T02:18:41-10:00 -10.80201 -146.91909     168   4.1 Hōkūleʻa
  2022-05-03T12:10:20UTC 2022-05-03T02:10:20-10:00 2022-05-03T02:10:20-10:00 -10.79128 -146.92742     170   4.9 Hikianalia
  2022-05-03T11:18:42UTC 2022-05-03T01:18:42-10:00 2022-05-03T01:18:42-10:00 -10.73540 -146.93379     175   5.0 Hōkūleʻa
  2022-05-03T11:09:19UTC 2022-05-03T01:09:19-10:00 2022-05-03T01:09:19-10:00 -10.70996 -146.94244     181   5.4 Hikianalia
  2022-05-03T10:18:44UTC 2022-05-03T00:18:44-10:00 2022-05-03T00:18:44-10:00 -10.65189 -146.94130     182   5.3 Hōkūleʻa
  2022-05-03T10:10:41UTC 2022-05-03T00:10:41-10:00 2022-05-03T00:10:41-10:00 -10.62108 -146.94059     179   5.2 Hikianalia
  2022-05-03T09:18:40UTC 2022-05-02T23:18:40-10:00 2022-05-02T23:18:40-10:00 -10.56274 -146.93740     181   4.7 Hōkūleʻa
  2022-05-03T09:10:17UTC 2022-05-02T23:10:17-10:00 2022-05-02T23:10:17-10:00 -10.53411 -146.94216     181   4.0 Hikianalia
  2022-05-03T08:18:29UTC 2022-05-02T22:18:29-10:00 2022-05-02T22:18:29-10:00 -10.48359 -146.93546     171   5.4 Hōkūleʻa
  2022-05-03T08:10:14UTC 2022-05-02T22:10:14-10:00 2022-05-02T22:10:14-10:00 -10.46661 -146.94068     168   6.1 Hikianalia
  2022-05-03T07:18:52UTC 2022-05-02T21:18:52-10:00 2022-05-02T21:18:52-10:00 -10.39542 -146.94984     163   5.1 Hōkūleʻa
  2022-05-03T07:10:13UTC 2022-05-02T21:10:13-10:00 2022-05-02T21:10:13-10:00 -10.36635 -146.96134     164   4.6 Hikianalia
  2022-05-03T06:18:40UTC 2022-05-02T20:18:40-1